createdAt,value
2018-07-27T00:00:14.642Z,17.85
2018-07-27T00:01:14.738Z,17.84
2018-07-27T00:02:14.812Z,17.83
2018-07-27T00:03:14.746Z,17.80
2018-07-27T00:04:14.751Z,17.77
2018-07-27T00:05:14.748Z,17.73
2018-07-27T00:06:14.789Z,17.69
2018-07-27T00:07:14.813Z,17.68
2018-07-27T00:08:14.766Z,17.66
2018-07-27T00:09:14.791Z,17.65
2018-07-27T00:10:14.714Z,17.65
2018-07-27T00:11:14.782Z,17.64
2018-07-27T00:12:14.753Z,17.62
2018-07-27T00:13:14.689Z,17.64
2018-07-27T00:14:14.688Z,17.61
2018-07-27T00:15:14.729Z,17.61
2018-07-27T00:16:14.666Z,17.62
2018-07-27T00:17:14.729Z,17.62
2018-07-27T00:18:14.666Z,17.64
2018-07-27T00:19:14.726Z,17.64
2018-07-27T00:20:14.758Z,17.65
2018-07-27T00:21:14.692Z,17.66
2018-07-27T00:22:14.733Z,17.65
2018-07-27T00:23:14.805Z,17.65
2018-07-27T00:24:14.806Z,17.65
2018-07-27T00:25:14.804Z,17.62
2018-07-27T00:26:14.735Z,17.61
2018-07-27T00:27:14.692Z,17.60
2018-07-27T00:28:14.806Z,17.60
2018-07-27T00:29:14.737Z,17.57
2018-07-27T00:30:14.824Z,17.57
2018-07-27T00:31:14.744Z,17.53
2018-07-27T00:32:14.723Z,17.49
2018-07-27T00:33:14.736Z,17.46
2018-07-27T00:34:14.715Z,17.43
2018-07-27T00:35:14.716Z,17.40
2018-07-27T00:36:14.755Z,17.37
2018-07-27T00:37:14.765Z,17.35
2018-07-27T00:38:14.733Z,17.32
2018-07-27T00:39:14.734Z,17.29
2018-07-27T00:40:14.807Z,17.28
2018-07-27T00:41:14.722Z,17.24
2018-07-27T00:42:14.813Z,17.20
2018-07-27T00:43:14.810Z,17.16
2018-07-27T00:44:14.774Z,17.13
2018-07-27T00:45:14.841Z,17.10
2018-07-27T00:46:14.852Z,17.08
2018-07-27T00:47:14.773Z,17.05
2018-07-27T00:48:14.864Z,17.02
2018-07-27T00:49:14.786Z,17.01
2018-07-27T00:50:14.785Z,16.98
2018-07-27T00:51:14.855Z,16.95
2018-07-27T00:52:14.755Z,16.94
2018-07-27T00:53:14.827Z,16.92
2018-07-27T00:54:14.818Z,16.88
2018-07-27T00:55:14.826Z,16.87
2018-07-27T00:56:14.756Z,16.84
2018-07-27T00:57:14.830Z,16.81
2018-07-27T00:58:14.764Z,16.79
2018-07-27T00:59:14.715Z,16.77
2018-07-27T01:00:14.831Z,16.76
2018-07-27T01:01:14.832Z,16.74
2018-07-27T01:02:14.845Z,16.72
2018-07-27T01:03:14.771Z,16.70
2018-07-27T01:04:14.859Z,16.69
2018-07-27T01:05:14.734Z,16.66
2018-07-27T01:06:14.797Z,16.63
2018-07-27T01:07:14.773Z,16.62
2018-07-27T01:08:14.793Z,16.59
2018-07-27T01:09:14.797Z,16.55
2018-07-27T01:10:14.862Z,16.52
2018-07-27T01:11:14.742Z,16.50
2018-07-27T01:12:14.815Z,16.50
2018-07-27T01:13:14.773Z,16.47
2018-07-27T01:14:14.808Z,16.46
2018-07-27T01:15:14.880Z,16.44
2018-07-27T01:16:14.744Z,16.41
2018-07-27T01:17:14.764Z,16.39
2018-07-27T01:18:14.814Z,16.36
2018-07-27T01:19:14.877Z,16.33
2018-07-27T01:20:14.802Z,16.32
2018-07-27T01:21:14.869Z,16.29
2018-07-27T01:22:14.746Z,16.28
2018-07-27T01:23:14.842Z,16.24
2018-07-27T01:24:14.846Z,16.22
2018-07-27T01:25:14.877Z,16.22
2018-07-27T01:26:14.862Z,16.21
2018-07-27T01:27:14.845Z,16.20
2018-07-27T01:28:14.887Z,16.21
2018-07-27T01:29:14.773Z,16.22
2018-07-27T01:30:14.823Z,16.24
2018-07-27T01:31:14.854Z,16.24
2018-07-27T01:32:14.886Z,16.25
2018-07-27T01:33:14.881Z,16.22
2018-07-27T01:34:14.883Z,16.20
2018-07-27T01:35:14.833Z,16.18
2018-07-27T01:36:14.756Z,16.16
2018-07-27T01:37:14.930Z,16.11
2018-07-27T01:38:14.853Z,16.09
2018-07-27T01:39:14.762Z,16.09
2018-07-27T01:40:14.894Z,16.05
2018-07-27T01:41:14.831Z,16.02
2018-07-27T01:42:14.803Z,16.03
2018-07-27T01:43:14.858Z,16.00
2018-07-27T01:44:14.793Z,15.99
2018-07-27T01:45:14.858Z,16.00
2018-07-27T01:46:14.791Z,16.00
2018-07-27T01:47:14.860Z,15.95
2018-07-27T01:48:14.796Z,15.94
2018-07-27T01:49:14.865Z,15.94
2018-07-27T01:50:14.796Z,15.94
2018-07-27T01:51:14.798Z,15.93
2018-07-27T01:52:14.794Z,15.91
2018-07-27T01:53:14.799Z,15.91
2018-07-27T01:54:14.872Z,15.91
2018-07-27T01:55:14.867Z,15.90
2018-07-27T01:56:14.802Z,15.87
2018-07-27T01:57:14.866Z,15.84
2018-07-27T01:58:14.834Z,15.84
2018-07-27T01:59:14.800Z,15.86
2018-07-27T02:00:14.803Z,15.83
2018-07-27T02:01:14.873Z,15.82
2018-07-27T02:02:14.867Z,15.80
2018-07-27T02:03:14.804Z,15.79
2018-07-27T02:04:14.807Z,15.77
2018-07-27T02:05:14.820Z,15.76
2018-07-27T02:06:14.805Z,15.75
2018-07-27T02:07:14.872Z,15.72
2018-07-27T02:08:14.806Z,15.72
2018-07-27T02:09:14.876Z,15.70
2018-07-27T02:10:14.812Z,15.72
2018-07-27T02:11:14.814Z,15.73
2018-07-27T02:12:14.814Z,15.73
2018-07-27T02:13:14.865Z,15.76
2018-07-27T02:14:14.831Z,15.73
2018-07-27T02:15:14.832Z,15.73
2018-07-27T02:16:14.872Z,15.73
2018-07-27T02:17:14.863Z,15.73
2018-07-27T02:18:14.839Z,15.72
2018-07-27T02:19:14.954Z,15.75
2018-07-27T02:20:14.753Z,15.76
2018-07-27T02:21:14.840Z,15.73
2018-07-27T02:22:14.870Z,15.73
2018-07-27T02:23:14.917Z,15.70
2018-07-27T02:24:14.905Z,15.69
2018-07-27T02:25:14.944Z,15.66
2018-07-27T02:26:14.929Z,15.64
2018-07-27T02:27:14.862Z,15.62
2018-07-27T02:28:14.794Z,15.59
2018-07-27T02:29:14.898Z,15.58
2018-07-27T02:30:14.831Z,15.57
2018-07-27T02:31:14.870Z,15.54
2018-07-27T02:32:14.871Z,15.54
2018-07-27T02:33:14.897Z,15.57
2018-07-27T02:34:14.897Z,15.55
2018-07-27T02:35:14.826Z,15.54
2018-07-27T02:36:14.900Z,15.51
2018-07-27T02:37:14.900Z,15.48
2018-07-27T02:38:14.897Z,15.47
2018-07-27T02:39:14.782Z,15.43
2018-07-27T02:40:14.900Z,15.42
2018-07-27T02:42:14.907Z,15.43
2018-07-27T02:43:14.836Z,15.43
2018-07-27T02:44:14.836Z,15.44
2018-07-27T02:45:14.901Z,15.46
2018-07-27T02:46:14.845Z,15.46
2018-07-27T02:47:14.822Z,15.47
2018-07-27T02:48:14.863Z,15.50
2018-07-27T02:49:14.871Z,15.54
2018-07-27T02:50:14.827Z,15.57
2018-07-27T02:51:14.932Z,15.58
2018-07-27T02:52:14.853Z,15.58
2018-07-27T02:53:14.898Z,15.58
2018-07-27T02:54:14.776Z,15.61
2018-07-27T02:55:14.839Z,15.62
2018-07-27T02:56:14.890Z,15.64
2018-07-27T02:57:14.802Z,15.64
2018-07-27T02:58:14.817Z,15.64
2018-07-27T02:59:14.841Z,15.65
2018-07-27T03:00:14.807Z,15.65
2018-07-27T03:01:14.894Z,15.61
2018-07-27T03:02:14.775Z,15.59
2018-07-27T03:03:14.784Z,15.57
2018-07-27T03:04:14.907Z,15.54
2018-07-27T03:05:14.906Z,15.51
2018-07-27T03:06:14.833Z,15.48
2018-07-27T03:07:14.837Z,15.47
2018-07-27T03:08:14.907Z,15.43
2018-07-27T03:09:14.838Z,15.42
2018-07-27T03:10:14.855Z,15.39
2018-07-27T03:11:14.790Z,15.37
2018-07-27T03:12:14.912Z,15.35
2018-07-27T03:13:14.939Z,15.33
2018-07-27T03:14:14.902Z,15.32
2018-07-27T03:15:14.883Z,15.28
2018-07-27T03:16:14.922Z,15.25
2018-07-27T03:17:14.956Z,15.22
2018-07-27T03:18:14.898Z,15.21
2018-07-27T03:19:14.961Z,15.19
2018-07-27T03:20:14.841Z,15.17
2018-07-27T03:21:14.847Z,15.18
2018-07-27T03:22:14.941Z,15.19
2018-07-27T03:23:14.832Z,15.17
2018-07-27T03:24:14.887Z,15.15
2018-07-27T03:25:14.927Z,15.14
2018-07-27T03:26:14.848Z,15.14
2018-07-27T03:27:14.929Z,15.14
2018-07-27T03:28:14.937Z,15.17
2018-07-27T03:29:14.952Z,15.17
2018-07-27T03:30:14.961Z,15.24
2018-07-27T03:31:14.932Z,15.29
2018-07-27T03:32:14.991Z,15.29
2018-07-27T03:33:14.965Z,15.28
2018-07-27T03:34:14.903Z,15.25
2018-07-27T03:35:14.935Z,15.24
2018-07-27T03:36:14.966Z,15.22
2018-07-27T03:37:14.897Z,15.22
2018-07-27T03:38:14.905Z,15.24
2018-07-27T03:39:14.896Z,15.22
2018-07-27T03:40:14.877Z,15.22
2018-07-27T03:41:14.893Z,15.21
2018-07-27T03:42:14.904Z,15.21
2018-07-27T03:43:15.019Z,15.22
2018-07-27T03:44:14.940Z,15.21
2018-07-27T03:45:14.960Z,15.21
2018-07-27T03:46:14.865Z,15.18
2018-07-27T03:47:15.018Z,15.17
2018-07-27T03:48:14.906Z,15.15
2018-07-27T03:49:14.957Z,15.14
2018-07-27T03:50:14.984Z,15.15
2018-07-27T03:51:14.961Z,15.15
2018-07-27T03:52:14.944Z,15.17
2018-07-27T03:53:14.937Z,15.15
2018-07-27T03:54:14.904Z,15.15
2018-07-27T03:55:14.850Z,15.14
2018-07-27T03:56:14.949Z,15.17
2018-07-27T03:57:14.833Z,15.17
2018-07-27T03:58:14.946Z,15.14
2018-07-27T03:59:14.936Z,15.15
2018-07-27T04:00:14.837Z,15.13
2018-07-27T04:01:14.936Z,15.13
2018-07-27T04:02:14.918Z,15.11
2018-07-27T04:03:14.893Z,15.10
2018-07-27T04:04:14.991Z,15.10
2018-07-27T04:05:14.980Z,15.07
2018-07-27T04:06:14.860Z,15.07
2018-07-27T04:07:14.946Z,15.07
2018-07-27T04:08:15.031Z,15.06
2018-07-27T04:09:14.991Z,15.07
2018-07-27T04:10:14.956Z,15.06
2018-07-27T04:11:14.866Z,15.03
2018-07-27T04:12:14.868Z,15.03
2018-07-27T04:13:14.865Z,15.03
2018-07-27T04:14:14.915Z,15.03
2018-07-27T04:15:14.868Z,15.02
2018-07-27T04:16:14.863Z,15.02
2018-07-27T04:17:14.918Z,15.04
2018-07-27T04:18:14.913Z,15.04
2018-07-27T04:19:14.959Z,15.04
2018-07-27T04:20:14.886Z,15.04
2018-07-27T04:21:14.835Z,15.04
2018-07-27T04:22:14.853Z,15.08
2018-07-27T04:23:14.966Z,15.10
2018-07-27T04:24:14.932Z,15.11
2018-07-27T04:25:14.887Z,15.15
2018-07-27T04:26:15.028Z,15.15
2018-07-27T04:27:14.971Z,15.15
2018-07-27T04:28:14.933Z,15.15
2018-07-27T04:29:14.934Z,15.18
2018-07-27T04:30:14.873Z,15.21
2018-07-27T04:31:14.894Z,15.19
2018-07-27T04:32:15.012Z,15.21
2018-07-27T04:33:14.946Z,15.24
2018-07-27T04:34:14.950Z,15.25
2018-07-27T04:35:14.939Z,15.26
2018-07-27T04:36:15.008Z,15.28
2018-07-27T04:37:14.975Z,15.31
2018-07-27T04:38:14.974Z,15.32
2018-07-27T04:39:14.956Z,15.33
2018-07-27T04:40:14.898Z,15.33
2018-07-27T04:41:15.116Z,15.33
2018-07-27T04:42:14.956Z,15.35
2018-07-27T04:43:14.981Z,15.36
2018-07-27T04:44:14.920Z,15.39
2018-07-27T04:45:14.917Z,15.42
2018-07-27T04:46:14.939Z,15.43
2018-07-27T04:47:14.931Z,15.46
2018-07-27T04:48:14.921Z,15.47
2018-07-27T04:49:14.928Z,15.50
2018-07-27T04:50:14.924Z,15.51
2018-07-27T04:51:14.919Z,15.53
2018-07-27T04:52:14.985Z,15.54
2018-07-27T04:53:14.985Z,15.59
2018-07-27T04:54:14.922Z,15.61
2018-07-27T04:55:14.986Z,15.68
2018-07-27T04:56:14.943Z,15.72
2018-07-27T04:57:14.921Z,15.87
2018-07-27T04:58:14.988Z,15.95
2018-07-27T04:59:14.957Z,15.99
2018-07-27T05:00:14.945Z,16.05
2018-07-27T05:01:14.991Z,16.11
2018-07-27T05:02:14.926Z,16.13
2018-07-27T05:03:14.903Z,16.14
2018-07-27T05:04:15.015Z,16.18
2018-07-27T05:05:14.966Z,16.18
2018-07-27T05:06:15.024Z,16.20
2018-07-27T05:07:14.996Z,16.22
2018-07-27T05:08:15.000Z,16.25
2018-07-27T05:09:14.960Z,16.29
2018-07-27T05:10:14.899Z,16.32
2018-07-27T05:11:14.997Z,16.35
2018-07-27T05:12:14.979Z,16.41
2018-07-27T05:13:14.898Z,16.47
2018-07-27T05:14:15.025Z,16.57
2018-07-27T05:15:14.961Z,16.68
2018-07-27T05:16:15.018Z,16.73
2018-07-27T05:17:15.032Z,16.76
2018-07-27T05:18:14.982Z,16.79
2018-07-27T05:19:15.037Z,16.88
2018-07-27T05:20:14.922Z,16.92
2018-07-27T05:21:15.005Z,16.98
2018-07-27T05:22:15.004Z,17.06
2018-07-27T05:23:14.979Z,17.12
2018-07-27T05:24:15.026Z,17.18
2018-07-27T05:25:14.978Z,17.25
2018-07-27T05:26:14.946Z,17.36
2018-07-27T05:27:14.912Z,17.46
2018-07-27T05:28:15.009Z,17.51
2018-07-27T05:29:15.032Z,17.51
2018-07-27T05:30:15.048Z,17.58
2018-07-27T05:31:15.046Z,17.64
2018-07-27T05:32:15.045Z,17.73
2018-07-27T05:33:15.023Z,17.83
2018-07-27T05:34:15.092Z,17.89
2018-07-27T05:35:15.030Z,17.95
2018-07-27T05:36:14.971Z,18.02
2018-07-27T05:37:14.956Z,18.07
2018-07-27T05:38:14.947Z,18.16
2018-07-27T05:39:14.951Z,18.20
2018-07-27T05:40:15.020Z,18.25
2018-07-27T05:41:15.015Z,18.29
2018-07-27T05:42:14.952Z,18.36
2018-07-27T05:43:15.014Z,18.44
2018-07-27T05:44:15.015Z,18.51
2018-07-27T05:45:14.956Z,18.58
2018-07-27T05:46:15.013Z,18.64
2018-07-27T05:47:14.968Z,18.69
2018-07-27T05:48:14.927Z,18.76
2018-07-27T05:49:15.018Z,18.81
2018-07-27T05:50:15.026Z,18.87
2018-07-27T05:51:14.979Z,18.94
2018-07-27T05:52:15.021Z,18.99
2018-07-27T05:53:14.894Z,19.08
2018-07-27T05:54:14.935Z,19.19
2018-07-27T05:55:15.016Z,19.36
2018-07-27T05:56:14.897Z,19.60
2018-07-27T05:57:14.958Z,19.81
2018-07-27T05:58:14.975Z,20.09
2018-07-27T05:59:15.025Z,20.38
2018-07-27T06:00:15.018Z,20.68
2018-07-27T06:01:15.027Z,20.87
2018-07-27T06:02:15.028Z,21.04
2018-07-27T06:03:15.020Z,21.28
2018-07-27T06:04:15.032Z,21.45
2018-07-27T06:05:14.903Z,21.67
2018-07-27T06:06:14.972Z,21.83
2018-07-27T06:07:14.939Z,21.87
2018-07-27T06:08:15.030Z,21.93
2018-07-27T06:09:14.989Z,21.96
2018-07-27T06:10:15.023Z,22.02
2018-07-27T06:11:15.088Z,22.09
2018-07-27T06:12:15.025Z,22.16
2018-07-27T06:13:15.013Z,22.27
2018-07-27T06:14:15.019Z,22.30
2018-07-27T06:15:15.018Z,22.39
2018-07-27T06:16:15.062Z,22.52
2018-07-27T06:17:15.005Z,22.61
2018-07-27T06:18:15.099Z,22.64
2018-07-27T06:19:15.002Z,22.68
2018-07-27T06:20:15.021Z,22.82
2018-07-27T06:21:15.008Z,22.82
2018-07-27T06:22:15.080Z,22.95
2018-07-27T06:23:15.008Z,22.97
2018-07-27T06:24:15.114Z,23.09
2018-07-27T06:25:14.987Z,23.26
2018-07-27T06:26:15.035Z,23.24
2018-07-27T06:27:14.989Z,23.38
2018-07-27T06:28:15.152Z,23.39
2018-07-27T06:29:15.041Z,23.42
2018-07-27T06:30:15.011Z,23.63
2018-07-27T06:31:14.950Z,23.79
2018-07-27T06:32:15.058Z,23.93
2018-07-27T06:33:14.996Z,23.96
2018-07-27T06:34:15.011Z,23.93
2018-07-27T06:35:15.074Z,23.91
2018-07-27T06:36:15.084Z,24.04
2018-07-27T06:37:15.084Z,24.18
2018-07-27T06:38:15.082Z,24.22
2018-07-27T06:39:15.028Z,24.25
2018-07-27T06:40:14.961Z,24.30
2018-07-27T06:41:15.080Z,24.44
2018-07-27T06:42:15.083Z,24.53
2018-07-27T06:43:15.101Z,24.61
2018-07-27T06:44:14.994Z,24.66
2018-07-27T06:45:15.031Z,24.67
2018-07-27T06:46:15.062Z,24.82
2018-07-27T06:47:15.063Z,25.02
2018-07-27T06:48:14.996Z,25.17
2018-07-27T06:50:15.107Z,25.56
2018-07-27T06:51:15.066Z,25.78
2018-07-27T06:52:14.999Z,25.96
2018-07-27T06:53:15.096Z,25.93
2018-07-27T06:54:15.035Z,26.06
2018-07-27T06:55:15.031Z,26.14
2018-07-27T06:56:15.106Z,26.34
2018-07-27T06:57:15.032Z,26.56
2018-07-27T06:58:14.992Z,26.79
2018-07-27T06:59:14.977Z,27.00
2018-07-27T07:00:15.105Z,27.11
2018-07-27T07:01:14.984Z,27.26
2018-07-27T07:02:15.098Z,27.46
2018-07-27T07:03:15.055Z,27.66
2018-07-27T07:04:15.113Z,27.92
2018-07-27T07:05:15.119Z,28.17
2018-07-27T07:06:15.035Z,28.26
2018-07-27T07:07:15.075Z,28.47
2018-07-27T07:08:15.139Z,28.55
2018-07-27T07:09:15.055Z,28.61
2018-07-27T07:10:15.079Z,28.72
2018-07-27T07:11:15.084Z,28.79
2018-07-27T07:12:14.986Z,28.72
2018-07-27T07:13:14.986Z,28.75
2018-07-27T07:14:15.062Z,28.55
2018-07-27T07:15:15.088Z,28.32
2018-07-27T07:16:15.113Z,28.14
2018-07-27T07:17:15.083Z,28.25
2018-07-27T07:18:15.085Z,28.42
2018-07-27T07:19:15.025Z,28.37
2018-07-27T07:20:15.087Z,28.26
2018-07-27T07:21:15.114Z,28.18
2018-07-27T07:22:15.092Z,28.04
2018-07-27T07:23:15.017Z,28.25
2018-07-27T07:24:15.025Z,28.26
2018-07-27T07:25:15.127Z,28.29
2018-07-27T07:26:15.149Z,28.25
2018-07-27T07:27:15.081Z,28.42
2018-07-27T07:28:14.967Z,28.42
2018-07-27T07:29:15.088Z,28.49
2018-07-27T07:30:15.084Z,28.54
2018-07-27T07:31:15.091Z,28.68
2018-07-27T07:32:14.978Z,28.76
2018-07-27T07:33:15.148Z,28.72
2018-07-27T07:34:14.998Z,28.65
2018-07-27T07:35:15.124Z,28.77
2018-07-27T07:36:15.052Z,28.49
2018-07-27T07:37:15.018Z,28.47
2018-07-27T07:38:15.133Z,28.57
2018-07-27T07:39:15.140Z,28.68
2018-07-27T07:40:15.126Z,28.73
2018-07-27T07:41:15.103Z,28.76
2018-07-27T07:42:15.103Z,28.95
2018-07-27T07:43:15.062Z,28.94
2018-07-27T07:44:15.067Z,29.04
2018-07-27T07:45:15.027Z,29.17
2018-07-27T07:46:15.028Z,29.12
2018-07-27T07:47:15.133Z,29.13
2018-07-27T07:48:15.087Z,29.29
2018-07-27T07:49:15.115Z,29.41
2018-07-27T07:50:15.124Z,29.61
2018-07-27T07:51:15.085Z,29.48
2018-07-27T07:52:15.152Z,29.55
2018-07-27T07:53:15.045Z,29.43
2018-07-27T07:54:15.122Z,29.24
2018-07-27T07:55:15.114Z,29.51
2018-07-27T07:56:15.046Z,29.75
2018-07-27T07:57:15.152Z,30.03
2018-07-27T07:58:14.998Z,30.26
2018-07-27T07:59:15.122Z,30.31
2018-07-27T08:00:15.053Z,30.53
2018-07-27T08:01:15.143Z,30.58
2018-07-27T08:02:15.052Z,30.73
2018-07-27T08:03:15.058Z,30.61
2018-07-27T08:04:15.170Z,30.69
2018-07-27T08:05:15.090Z,30.93
2018-07-27T08:06:15.076Z,30.91
2018-07-27T08:07:15.044Z,31.05
2018-07-27T08:08:15.041Z,31.13
2018-07-27T08:09:15.121Z,31.06
2018-07-27T08:10:15.098Z,31.08
2018-07-27T08:11:15.156Z,31.17
2018-07-27T08:12:15.158Z,31.35
2018-07-27T08:13:15.065Z,31.23
2018-07-27T08:14:15.074Z,31.26
2018-07-27T08:15:15.126Z,31.40
2018-07-27T08:16:15.063Z,31.60
2018-07-27T08:17:15.091Z,31.60
2018-07-27T08:18:15.062Z,31.62
2018-07-27T08:19:15.062Z,31.53
2018-07-27T08:20:15.128Z,31.70
2018-07-27T08:21:15.070Z,31.67
2018-07-27T08:22:15.131Z,31.48
2018-07-27T08:23:15.057Z,31.56
2018-07-27T08:24:15.145Z,31.71
2018-07-27T08:25:15.163Z,31.81
2018-07-27T08:26:15.137Z,31.91
2018-07-27T08:27:15.193Z,32.14
2018-07-27T08:28:15.141Z,32.29
2018-07-27T08:29:15.069Z,32.37
2018-07-27T08:30:15.072Z,32.45
2018-07-27T08:31:15.134Z,32.40
2018-07-27T08:32:15.137Z,32.36
2018-07-27T08:33:15.144Z,32.43
2018-07-27T08:34:15.141Z,32.51
2018-07-27T08:35:15.076Z,32.59
2018-07-27T08:36:15.076Z,32.60
2018-07-27T08:37:15.083Z,32.58
2018-07-27T08:38:15.094Z,32.67
2018-07-27T08:39:15.076Z,32.58
2018-07-27T08:40:15.083Z,32.48
2018-07-27T08:41:15.143Z,32.36
2018-07-27T08:42:15.082Z,32.32
2018-07-27T08:43:15.144Z,32.32
2018-07-27T08:44:15.153Z,32.40
2018-07-27T08:45:15.104Z,32.60
2018-07-27T08:46:15.185Z,32.56
2018-07-27T08:47:15.147Z,32.55
2018-07-27T08:48:15.116Z,32.49
2018-07-27T08:49:15.130Z,32.73
2018-07-27T08:50:15.177Z,33.03
2018-07-27T08:51:15.295Z,33.27
2018-07-27T08:52:15.114Z,33.41
2018-07-27T08:53:15.120Z,33.50
2018-07-27T08:54:15.192Z,33.57
2018-07-27T08:55:15.174Z,33.39
2018-07-27T08:56:15.064Z,33.50
2018-07-27T08:57:15.127Z,33.55
2018-07-27T08:58:15.117Z,33.70
2018-07-27T08:59:15.157Z,33.70
2018-07-27T09:00:15.120Z,33.65
2018-07-27T09:01:15.178Z,33.51
2018-07-27T09:02:15.134Z,33.50
2018-07-27T09:03:15.123Z,33.32
2018-07-27T09:04:15.111Z,33.29
2018-07-27T09:05:15.098Z,33.31
2018-07-27T09:06:15.042Z,33.32
2018-07-27T09:07:15.119Z,33.39
2018-07-27T09:08:15.151Z,33.29
2018-07-27T09:09:15.070Z,33.36
2018-07-27T09:10:15.197Z,33.66
2018-07-27T09:11:15.149Z,33.70
2018-07-27T09:12:15.159Z,33.79
2018-07-27T09:13:15.120Z,33.72
2018-07-27T09:14:15.140Z,33.58
2018-07-27T09:15:15.131Z,33.36
2018-07-27T09:16:15.144Z,33.17
2018-07-27T09:17:15.227Z,33.11
2018-07-27T09:18:15.167Z,33.28
2018-07-27T09:19:15.209Z,33.29
2018-07-27T09:20:15.138Z,33.21
2018-07-27T09:21:15.138Z,33.37
2018-07-27T09:22:15.168Z,33.50
2018-07-27T09:23:15.096Z,33.58
2018-07-27T09:24:15.313Z,33.51
2018-07-27T09:25:15.654Z,33.57
2018-07-27T09:26:15.153Z,33.51
2018-07-27T09:27:15.083Z,33.32
2018-07-27T09:28:15.133Z,33.37
2018-07-27T09:29:15.155Z,33.55
2018-07-27T09:30:15.195Z,33.52
2018-07-27T09:31:15.134Z,33.46
2018-07-27T09:32:15.203Z,33.52
2018-07-27T09:33:15.202Z,33.62
2018-07-27T09:34:15.225Z,33.70
2018-07-27T09:35:15.282Z,33.87
2018-07-27T09:36:15.213Z,34.03
2018-07-27T09:37:15.092Z,34.17
2018-07-27T09:38:15.216Z,34.01
2018-07-27T09:39:15.227Z,34.01
2018-07-27T09:40:15.093Z,34.19
2018-07-27T09:41:15.205Z,34.35
2018-07-27T09:42:15.144Z,34.34
2018-07-27T09:43:15.169Z,34.23
2018-07-27T09:44:15.190Z,33.95
2018-07-27T09:45:15.189Z,34.03
2018-07-27T09:46:15.121Z,34.12
2018-07-27T09:47:15.119Z,34.10
2018-07-27T09:48:15.126Z,33.98
2018-07-27T09:49:15.127Z,34.03
2018-07-27T09:50:15.211Z,34.12
2018-07-27T09:51:15.192Z,34.27
2018-07-27T09:52:15.155Z,34.31
2018-07-27T09:53:15.128Z,33.73
2018-07-27T09:54:15.128Z,33.58
2018-07-27T09:55:15.124Z,33.34
2018-07-27T09:56:15.070Z,33.48
2018-07-27T09:57:15.180Z,33.69
2018-07-27T09:58:15.125Z,33.88
2018-07-27T09:59:15.149Z,33.95
2018-07-27T10:00:15.089Z,34.12
2018-07-27T10:01:15.150Z,34.19
2018-07-27T10:02:15.156Z,34.19
2018-07-27T10:03:15.134Z,34.25
2018-07-27T10:04:15.201Z,34.41
2018-07-27T10:05:15.139Z,34.52
2018-07-27T10:06:15.168Z,34.59
2018-07-27T10:07:15.146Z,34.53
2018-07-27T10:08:15.239Z,34.43
2018-07-27T10:09:15.207Z,33.77
2018-07-27T10:10:15.209Z,33.77
2018-07-27T10:11:15.232Z,33.85
2018-07-27T10:12:15.230Z,34.01
2018-07-27T10:13:15.141Z,34.09
2018-07-27T10:14:15.123Z,34.13
2018-07-27T10:15:15.177Z,33.80
2018-07-27T10:16:15.209Z,33.65
2018-07-27T10:17:15.248Z,33.80
2018-07-27T10:18:15.182Z,33.72
2018-07-27T10:19:15.130Z,33.59
2018-07-27T10:20:15.181Z,33.66
2018-07-27T10:21:15.211Z,33.81
2018-07-27T10:22:15.235Z,33.83
2018-07-27T10:23:15.117Z,33.79
2018-07-27T10:24:15.242Z,33.77
2018-07-27T10:25:15.248Z,33.81
2018-07-27T10:26:15.144Z,33.87
2018-07-27T10:27:15.223Z,33.99
2018-07-27T10:28:15.253Z,33.98
2018-07-27T10:29:15.186Z,33.98
2018-07-27T10:30:15.249Z,34.02
2018-07-27T10:31:15.177Z,34.10
2018-07-27T10:32:15.145Z,34.42
2018-07-27T10:33:15.179Z,34.42
2018-07-27T10:34:15.117Z,34.47
2018-07-27T10:35:15.209Z,34.57
2018-07-27T10:36:15.204Z,34.68
2018-07-27T10:37:15.157Z,34.94
2018-07-27T10:38:15.094Z,34.93
2018-07-27T10:39:15.093Z,34.99
2018-07-27T10:40:15.083Z,35.09
2018-07-27T10:41:15.162Z,34.98
2018-07-27T10:42:15.209Z,34.97
2018-07-27T10:43:15.166Z,34.97
2018-07-27T10:44:15.187Z,34.93
2018-07-27T10:45:15.201Z,34.95
2018-07-27T10:46:15.206Z,35.02
2018-07-27T10:47:15.170Z,35.22
2018-07-27T10:48:15.233Z,35.33
2018-07-27T10:49:15.153Z,35.50
2018-07-27T10:50:15.250Z,35.63
2018-07-27T10:51:15.261Z,35.49
2018-07-27T10:52:15.237Z,35.31
2018-07-27T10:53:15.176Z,35.17
2018-07-27T10:54:15.235Z,35.11
2018-07-27T10:55:15.171Z,35.15
2018-07-27T10:56:15.188Z,35.16
2018-07-27T10:57:15.173Z,35.20
2018-07-27T10:58:15.237Z,35.13
2018-07-27T10:59:15.263Z,35.13
2018-07-27T11:00:15.305Z,35.28
2018-07-27T11:01:15.241Z,35.39
2018-07-27T11:02:15.242Z,34.95
2018-07-27T11:03:15.245Z,34.50
2018-07-27T11:04:15.194Z,34.47
2018-07-27T11:05:15.268Z,34.46
2018-07-27T11:06:15.184Z,34.46
2018-07-27T11:07:15.146Z,34.36
2018-07-27T11:08:15.272Z,34.42
2018-07-27T11:09:15.282Z,34.05
2018-07-27T11:10:15.279Z,33.77
2018-07-27T11:11:15.219Z,33.70
2018-07-27T11:12:15.285Z,34.09
2018-07-27T11:13:15.292Z,34.45
2018-07-27T11:14:15.182Z,34.70
2018-07-27T11:15:15.175Z,34.71
2018-07-27T11:16:15.287Z,34.97
2018-07-27T11:17:15.225Z,34.93
2018-07-27T11:18:15.196Z,35.01
2018-07-27T11:19:15.172Z,34.64
2018-07-27T11:20:15.160Z,34.49
2018-07-27T11:21:15.244Z,34.46
2018-07-27T11:22:15.132Z,34.24
2018-07-27T11:23:15.214Z,34.17
2018-07-27T11:24:15.221Z,34.43
2018-07-27T11:25:15.230Z,34.60
2018-07-27T11:26:15.222Z,34.80
2018-07-27T11:27:15.179Z,34.93
2018-07-27T11:28:15.285Z,35.08
2018-07-27T11:29:15.221Z,35.20
2018-07-27T11:30:15.282Z,35.05
2018-07-27T11:31:15.291Z,34.63
2018-07-27T11:32:15.218Z,34.35
2018-07-27T11:33:15.277Z,34.35
2018-07-27T11:34:15.195Z,34.63
2018-07-27T11:35:15.262Z,34.91
2018-07-27T11:36:15.255Z,35.06
2018-07-27T11:37:15.267Z,35.33
2018-07-27T11:38:15.139Z,35.60
2018-07-27T11:39:15.190Z,35.77
2018-07-27T11:40:15.219Z,35.95
2018-07-27T11:41:15.175Z,36.00
2018-07-27T11:42:15.271Z,36.37
2018-07-27T11:43:15.258Z,36.43
2018-07-27T11:44:15.238Z,36.58
2018-07-27T11:45:15.242Z,36.48
2018-07-27T11:46:15.209Z,36.41
2018-07-27T11:47:15.306Z,36.00
2018-07-27T11:48:15.207Z,35.64
2018-07-27T11:49:15.247Z,35.73
2018-07-27T11:50:15.316Z,35.62
2018-07-27T11:51:15.213Z,35.55
2018-07-27T11:52:15.294Z,35.79
2018-07-27T11:53:15.317Z,36.07
2018-07-27T11:54:15.276Z,36.28
2018-07-27T11:55:15.207Z,36.33
2018-07-27T11:56:15.207Z,36.43
2018-07-27T11:57:15.279Z,36.48
2018-07-27T11:58:15.217Z,36.26
2018-07-27T11:59:15.282Z,36.19
2018-07-27T12:00:15.347Z,35.93
2018-07-27T12:01:15.216Z,36.04
2018-07-27T12:02:15.223Z,36.22
2018-07-27T12:03:15.281Z,36.35
2018-07-27T12:04:15.185Z,35.92
2018-07-27T12:05:15.284Z,35.67
2018-07-27T12:06:15.230Z,34.79
2018-07-27T12:07:15.194Z,34.23
2018-07-27T12:08:15.225Z,34.52
2018-07-27T12:09:15.276Z,34.49
2018-07-27T12:10:15.236Z,34.34
2018-07-27T12:11:15.190Z,34.16
2018-07-27T12:12:15.325Z,34.24
2018-07-27T12:13:15.192Z,34.41
2018-07-27T12:14:15.335Z,34.63
2018-07-27T12:15:15.544Z,34.97
2018-07-27T12:16:15.279Z,35.22
2018-07-27T12:17:15.163Z,35.48
2018-07-27T12:18:15.194Z,35.75
2018-07-27T12:19:15.228Z,36.04
2018-07-27T12:20:15.246Z,36.18
2018-07-27T12:21:15.394Z,36.40
2018-07-27T12:22:15.244Z,36.57
2018-07-27T12:23:15.230Z,36.73
2018-07-27T12:24:15.230Z,36.79
2018-07-27T12:25:15.162Z,36.70
2018-07-27T12:26:15.168Z,36.66
2018-07-27T12:27:15.330Z,36.46
2018-07-27T12:28:15.208Z,36.50
2018-07-27T12:29:15.207Z,36.66
2018-07-27T12:30:15.254Z,36.43
2018-07-27T12:31:15.251Z,36.41
2018-07-27T12:32:15.256Z,36.24
2018-07-27T12:33:15.294Z,35.93
2018-07-27T12:34:15.238Z,35.81
2018-07-27T12:35:15.312Z,35.90
2018-07-27T12:36:15.239Z,35.93
2018-07-27T12:37:15.308Z,36.03
2018-07-27T12:38:15.306Z,36.18
2018-07-27T12:39:15.312Z,36.18
2018-07-27T12:40:15.347Z,36.24
2018-07-27T12:41:15.311Z,36.29
2018-07-27T12:42:15.313Z,36.25
2018-07-27T12:43:15.251Z,36.28
2018-07-27T12:44:15.245Z,36.51
2018-07-27T12:45:15.313Z,36.61
2018-07-27T12:46:15.248Z,36.69
2018-07-27T12:47:15.251Z,36.40
2018-07-27T12:48:15.313Z,36.24
2018-07-27T12:49:15.251Z,36.44
2018-07-27T12:50:15.313Z,36.44
2018-07-27T12:51:15.259Z,36.47
2018-07-27T12:52:15.250Z,36.52
2018-07-27T12:53:15.253Z,36.61
2018-07-27T12:54:15.294Z,36.52